High Tide — D5AA7 — position and weather

sailwx.info

Track history (hours):
 
Tides and Currents Weather Stations Pressure Air Temp Water Temp Dewpoint Dewpoint Depression Visibility Wind Speed Wind Dir Waves Ship Positions

High Tide

Last reported at 2014-Jul-10 14:33 UTC. Time now 2014-Jul-28 10:18 UTC.
Position N 31°04' E 122°06'.
Warning: this ship's position is 17 days out of date.

Length 183 m; draft 7.9 m.

Type: Tanker. MMSI: 636015337.

Date/timePositionNaut miles runAvg speedWind from/ knotsBaromVisibWave heightAir tempDewpointWater temp
2014-Jul-10 14:33N 31°04' E 122°06'3411.2
2014-Jul-10 11:33N 31°23' E 121°35'1010.2
2014-Jul-10 10:33N 31°30' E 121°25'1111.0
2014-Jul-10 09:32N 31°37' E 121°16'1613.8
2014-Jul-10 08:25N 31°46' E 121°01'5 0.1
2014-Jul-08 16:33N 31°50' E 120°56'5 4.5
2014-Jul-08 15:32N 31°47' E 121°00'1411.0
2014-Jul-08 14:18N 31°39' E 121°14'810.4
2014-Jul-08 13:31N 31°33' E 121°20'8 8.8
2014-Jul-08 12:33N 31°28' E 121°28'8 8.0
2014-Jul-08 11:33N 31°23' E 121°35'1010.0
2014-Jul-08 10:32N 31°18' E 121°46'29 9.5
2014-Jul-08 07:30N 31°07' E 122°17'  
2014-Jul-06 02:26N 38°20' E 121°38'1213.5
2014-Jul-06 01:33N 38°24' E 121°23'17110.0
2014-Jul-05 08:33N 38°58' E 117°49'3 2.8
2014-Jul-05 07:32N 38°58' E 117°45'0 0.0
2014-Jul-05 06:32N 38°58' E 117°45'0 0.0
2014-Jul-05 05:32N 38°58' E 117°45'0 0.0
2014-Jul-05 04:32N 38°58' E 117°45'0 0.0
2014-Jul-05 03:32N 38°58' E 117°45'0 0.0
2014-Jul-05 02:32N 38°58' E 117°45'0 0.0
2014-Jul-05 01:32N 38°58' E 117°45'0 0.0
2014-Jul-05 00:32N 38°58' E 117°45'0 0.0
2014-Jul-04 23:32N 38°58' E 117°45'0 0.0
2014-Jul-04 22:32N 38°58' E 117°45'0 0.0
2014-Jul-04 21:32N 38°58' E 117°45'0 0.0
2014-Jul-04 20:32N 38°58' E 117°45'0 0.0
2014-Jul-04 19:32N 38°58' E 117°45'0 0.0
2014-Jul-04 18:32N 38°58' E 117°45'0 0.0
2014-Jul-04 17:32N 38°58' E 117°45'0 0.0
2014-Jul-04 16:32N 38°58' E 117°45'0 0.0
2014-Jul-04 15:26N 38°58' E 117°45'0 0.0
2014-Jul-04 14:32N 38°58' E 117°45'0 0.0
2014-Jul-04 13:32N 38°58' E 117°45'0 0.0
2014-Jul-04 12:26N 38°58' E 117°45'0 0.0
2014-Jul-04 11:32N 38°58' E 117°45'0 0.0
2014-Jul-04 10:32N 38°58' E 117°45'0 0.0
2014-Jul-04 09:26N 38°58' E 117°45'0 0.0
2014-Jul-04 08:32N 38°58' E 117°45'1 0.9
2014-Jul-04 07:33N 38°58' E 117°47'1210.6
2014-Jul-04 06:26N 38°56' E 118°02'  
2014-Jul-01 22:24N 38°24' E 121°20'2312.6
2014-Jul-01 20:33N 38°11' E 121°45'1412.7
2014-Jul-01 19:28N 38°04' E 121°60'1212.4
2014-Jul-01 18:30N 37°57' E 122°12'1612.2
2014-Jul-01 17:10N 37°50' E 122°31'812.1
2014-Jul-01 16:32N 37°46' E 122°39'  
Track history (hours):
 
Tides and Currents Weather Stations Pressure Air Temp Water Temp Dewpoint Dewpoint Depression Visibility Wind Speed Wind Dir Waves Ship Positions

High Tide

Last reported at 2014-Jul-10 14:33 UTC. Time now 2014-Jul-28 10:18 UTC.
Position N 31°04' E 122°06'.
Warning: this ship's position is 17 days out of date.

Length 183 m; draft 7.9 m.

Type: Tanker. MMSI: 636015337.

Date/timePositionNaut miles runAvg speedWind from/ knotsBaromVisibWave heightAir tempDewpointWater temp
2014-Jul-10 14:33N 31°04' E 122°06'3411.2
2014-Jul-10 11:33N 31°23' E 121°35'1010.2
2014-Jul-10 10:33N 31°30' E 121°25'1111.0
2014-Jul-10 09:32N 31°37' E 121°16'1613.8
2014-Jul-10 08:25N 31°46' E 121°01'5 0.1
2014-Jul-08 16:33N 31°50' E 120°56'5 4.5
2014-Jul-08 15:32N 31°47' E 121°00'1411.0
2014-Jul-08 14:18N 31°39' E 121°14'810.4
2014-Jul-08 13:31N 31°33' E 121°20'8 8.8
2014-Jul-08 12:33N 31°28' E 121°28'8 8.0
2014-Jul-08 11:33N 31°23' E 121°35'1010.0
2014-Jul-08 10:32N 31°18' E 121°46'29 9.5
2014-Jul-08 07:30N 31°07' E 122°17'  
2014-Jul-06 02:26N 38°20' E 121°38'1213.5
2014-Jul-06 01:33N 38°24' E 121°23'17110.0
2014-Jul-05 08:33N 38°58' E 117°49'3 2.8
2014-Jul-05 07:32N 38°58' E 117°45'0 0.0
2014-Jul-05 06:32N 38°58' E 117°45'0 0.0
2014-Jul-05 05:32N 38°58' E 117°45'0 0.0
2014-Jul-05 04:32N 38°58' E 117°45'0 0.0
2014-Jul-05 03:32N 38°58' E 117°45'0 0.0
2014-Jul-05 02:32N 38°58' E 117°45'0 0.0
2014-Jul-05 01:32N 38°58' E 117°45'0 0.0
2014-Jul-05 00:32N 38°58' E 117°45'0 0.0
2014-Jul-04 23:32N 38°58' E 117°45'0 0.0
2014-Jul-04 22:32N 38°58' E 117°45'0 0.0
2014-Jul-04 21:32N 38°58' E 117°45'0 0.0
2014-Jul-04 20:32N 38°58' E 117°45'0 0.0
2014-Jul-04 19:32N 38°58' E 117°45'0 0.0
2014-Jul-04 18:32N 38°58' E 117°45'0 0.0
2014-Jul-04 17:32N 38°58' E 117°45'0 0.0
2014-Jul-04 16:32N 38°58' E 117°45'0 0.0
2014-Jul-04 15:26N 38°58' E 117°45'0 0.0
2014-Jul-04 14:32N 38°58' E 117°45'0 0.0
2014-Jul-04 13:32N 38°58' E 117°45'0 0.0
2014-Jul-04 12:26N 38°58' E 117°45'0 0.0
2014-Jul-04 11:32N 38°58' E 117°45'0 0.0
2014-Jul-04 10:32N 38°58' E 117°45'0 0.0
2014-Jul-04 09:26N 38°58' E 117°45'0 0.0
2014-Jul-04 08:32N 38°58' E 117°45'1 0.9
2014-Jul-04 07:33N 38°58' E 117°47'1210.6
2014-Jul-04 06:26N 38°56' E 118°02'  
2014-Jul-01 22:24N 38°24' E 121°20'2312.6
2014-Jul-01 20:33N 38°11' E 121°45'1412.7
2014-Jul-01 19:28N 38°04' E 121°60'1212.4
2014-Jul-01 18:30N 37°57' E 122°12'1612.2
2014-Jul-01 17:10N 37°50' E 122°31'812.1
2014-Jul-01 16:32N 37°46' E 122°39'  

Dump ship's entire track history